createdAt,value
2023-05-14T00:02:26.379Z,13.77
2023-05-14T00:07:30.890Z,13.62
2023-05-14T00:12:35.124Z,13.70
2023-05-14T00:17:38.130Z,13.59
2023-05-14T00:22:41.295Z,13.57
2023-05-14T00:27:45.372Z,13.62
2023-05-14T00:32:48.211Z,13.28
2023-05-14T00:37:50.974Z,13.41
2023-05-14T00:42:55.501Z,13.36
2023-05-14T00:47:58.300Z,13.35
2023-05-14T00:53:01.058Z,13.34
2023-05-14T00:58:06.274Z,13.29
2023-05-14T01:03:09.736Z,12.93
2023-05-14T01:08:19.909Z,13.01
2023-05-14T01:13:34.013Z,13.16
2023-05-14T01:18:36.939Z,12.83
2023-05-14T01:23:41.028Z,12.91
2023-05-14T01:28:44.470Z,12.76
2023-05-14T01:33:49.574Z,12.65
2023-05-14T01:38:53.970Z,12.46
2023-05-14T01:43:56.770Z,12.44
2023-05-14T01:48:59.609Z,12.46
2023-05-14T01:54:03.719Z,12.25
2023-05-14T01:59:06.401Z,12.21
2023-05-14T02:04:09.180Z,12.30
2023-05-14T02:09:13.257Z,12.30
2023-05-14T02:14:16.163Z,12.26
2023-05-14T02:19:18.883Z,12.03
2023-05-14T02:24:23.163Z,12.03
2023-05-14T02:29:25.861Z,11.92
2023-05-14T02:34:28.526Z,11.97
2023-05-14T02:39:32.763Z,11.95
2023-05-14T02:44:35.497Z,11.77
2023-05-14T02:49:38.221Z,11.93
2023-05-14T02:54:42.364Z,11.79
2023-05-14T02:59:45.173Z,11.81
2023-05-14T03:04:48.378Z,11.69
2023-05-14T03:09:52.441Z,11.63
2023-05-14T03:14:55.128Z,11.57
2023-05-14T03:19:57.805Z,11.69
2023-05-14T03:25:01.859Z,11.42
2023-05-14T03:30:05.298Z,11.58
2023-05-14T03:35:09.046Z,11.42
2023-05-14T03:40:13.795Z,11.54
2023-05-14T03:45:16.567Z,11.29
2023-05-14T03:50:19.511Z,11.18
2023-05-14T03:55:24.066Z,11.19
2023-05-14T04:00:27.034Z,11.32
2023-05-14T04:05:29.767Z,11.24
2023-05-14T04:10:33.889Z,11.16
2023-05-14T04:15:39.155Z,11.28
2023-05-14T04:20:42.976Z,11.14
2023-05-14T04:25:47.002Z,11.30
2023-05-14T04:30:49.719Z,11.46
2023-05-14T04:35:53.441Z,11.43
2023-05-14T04:40:57.480Z,11.54
2023-05-14T04:46:00.627Z,11.35
2023-05-14T04:51:05.028Z,11.64
2023-05-14T04:56:11.102Z,11.84
2023-05-14T05:01:13.879Z,11.80
2023-05-14T05:06:16.619Z,11.95
2023-05-14T05:11:21.256Z,11.99
2023-05-14T05:16:24.071Z,12.33
2023-05-14T05:21:26.907Z,12.46
2023-05-14T05:26:31.705Z,12.47
2023-05-14T05:31:34.758Z,12.62
2023-05-14T05:36:37.534Z,12.92
2023-05-14T05:41:41.686Z,12.89
2023-05-14T05:46:44.566Z,13.22
2023-05-14T05:51:47.236Z,13.23
2023-05-14T05:56:51.268Z,13.60
2023-05-14T06:01:54.115Z,13.81
2023-05-14T06:06:56.854Z,14.01
2023-05-14T06:12:00.906Z,14.11
2023-05-14T06:17:03.600Z,14.34
2023-05-14T06:22:06.374Z,13.88
2023-05-14T06:27:11.116Z,14.08
2023-05-14T06:32:15.580Z,14.14
2023-05-14T06:37:18.534Z,13.78
2023-05-14T06:42:22.581Z,13.89
2023-05-14T06:47:25.687Z,13.94
2023-05-14T06:52:28.516Z,14.19
2023-05-14T06:57:33.997Z,14.34
2023-05-14T07:02:36.759Z,14.55
2023-05-14T07:07:39.542Z,14.77
2023-05-14T07:12:44.102Z,14.66
2023-05-14T07:17:46.802Z,14.60
2023-05-14T07:22:49.463Z,14.79
2023-05-14T07:27:53.481Z,15.06
2023-05-14T07:32:56.555Z,15.52
2023-05-14T07:37:59.414Z,15.75
2023-05-14T07:43:03.489Z,16.14
2023-05-14T07:48:06.689Z,16.06
2023-05-14T07:53:09.477Z,16.35
2023-05-14T07:58:13.495Z,16.71
2023-05-14T08:03:16.254Z,16.56
2023-05-14T08:08:19.030Z,16.54
2023-05-14T08:13:23.114Z,16.72
2023-05-14T08:18:25.998Z,17.00
2023-05-14T08:23:28.822Z,17.19
2023-05-14T08:28:33.479Z,17.42
2023-05-14T08:33:36.311Z,17.57
2023-05-14T08:38:39.032Z,17.60
2023-05-14T08:43:46.853Z,17.81
2023-05-14T08:48:54.771Z,17.93
2023-05-14T08:53:58.840Z,18.12
2023-05-14T08:59:02.876Z,18.15
2023-05-14T09:04:08.379Z,18.39
2023-05-14T09:09:11.437Z,18.72
2023-05-14T09:14:16.009Z,18.62
2023-05-14T09:19:19.631Z,18.77
2023-05-14T09:24:23.992Z,19.03
2023-05-14T09:29:29.563Z,19.07
2023-05-14T09:34:34.843Z,19.20
2023-05-14T09:39:38.380Z,19.28
2023-05-14T09:44:42.424Z,19.04
2023-05-14T09:49:45.094Z,19.28
2023-05-14T09:54:48.065Z,19.40
2023-05-14T09:59:52.096Z,19.86
2023-05-14T10:04:57.974Z,19.77
2023-05-14T10:10:03.508Z,20.22
2023-05-14T10:15:13.194Z,19.50
2023-05-14T10:20:17.556Z,20.25
2023-05-14T10:25:20.678Z,20.28
2023-05-14T10:30:25.215Z,20.52
2023-05-14T10:35:28.245Z,19.48
2023-05-14T10:40:31.009Z,19.69
2023-05-14T10:45:35.166Z,20.13
2023-05-14T10:50:37.901Z,20.12
2023-05-14T10:55:40.704Z,20.80
2023-05-14T11:00:48.507Z,21.04
2023-05-14T11:05:51.449Z,21.20
2023-05-14T11:10:55.732Z,21.36
2023-05-14T11:16:04.178Z,20.98
2023-05-14T11:21:14.619Z,21.60
2023-05-14T11:26:18.300Z,21.84
2023-05-14T11:31:25.068Z,21.89
2023-05-14T11:36:27.830Z,22.16
2023-05-14T11:41:31.304Z,21.25
2023-05-14T11:46:35.659Z,21.76
2023-05-14T11:51:38.413Z,21.50
2023-05-14T11:56:41.213Z,21.95
2023-05-14T12:01:45.357Z,22.49
2023-05-14T12:06:48.065Z,22.15
2023-05-14T12:11:52.436Z,22.13
2023-05-14T12:16:56.487Z,22.68
2023-05-14T12:22:02.091Z,23.36
2023-05-14T12:27:05.054Z,22.30
2023-05-14T12:32:12.195Z,22.21
2023-05-14T12:37:14.913Z,23.10
2023-05-14T12:42:17.679Z,22.75
2023-05-14T12:47:23.000Z,24.25
2023-05-14T12:52:37.392Z,22.88
2023-05-14T12:57:44.127Z,21.62
2023-05-14T13:02:48.878Z,20.86
2023-05-14T13:07:53.752Z,20.88
2023-05-14T13:12:57.019Z,20.28
2023-05-14T13:18:20.202Z,19.79
2023-05-14T13:23:22.954Z,20.59
2023-05-14T13:28:25.933Z,20.32
2023-05-14T13:33:29.962Z,20.10
2023-05-14T13:38:32.739Z,19.83
2023-05-14T13:43:36.166Z,20.23
2023-05-14T13:48:40.172Z,20.27
2023-05-14T13:53:42.898Z,20.16
2023-05-14T13:58:45.567Z,19.53
2023-05-14T14:03:49.631Z,20.53
2023-05-14T14:08:52.391Z,20.33
2023-05-14T14:13:55.130Z,19.95
2023-05-14T14:18:59.439Z,20.60
2023-05-14T14:24:02.381Z,20.59
2023-05-14T14:29:05.095Z,20.77
2023-05-14T14:34:09.142Z,20.65
2023-05-14T14:39:11.848Z,19.50
2023-05-14T14:44:14.577Z,20.61
2023-05-14T14:49:18.730Z,20.85
2023-05-14T14:54:21.450Z,20.90
2023-05-14T14:59:24.142Z,20.27
2023-05-14T15:04:29.917Z,20.95
2023-05-14T15:09:32.994Z,20.90
2023-05-14T15:14:35.891Z,20.78
2023-05-14T15:19:40.220Z,20.65
2023-05-14T15:24:42.954Z,20.67
2023-05-14T15:29:45.721Z,20.86
2023-05-14T15:34:49.775Z,20.77
2023-05-14T15:39:52.504Z,20.55
2023-05-14T15:44:55.922Z,20.43
2023-05-14T15:50:00.007Z,20.21
2023-05-14T15:55:02.837Z,20.27
2023-05-14T16:00:10.381Z,20.25
2023-05-14T16:05:14.982Z,20.42
2023-05-14T16:10:17.705Z,20.38
2023-05-14T16:15:20.387Z,20.08
2023-05-14T16:20:24.785Z,20.17
2023-05-14T16:25:27.722Z,19.94
2023-05-14T16:30:30.497Z,19.97
2023-05-14T16:35:34.912Z,19.67
2023-05-14T16:40:37.665Z,19.47
2023-05-14T16:45:41.091Z,19.34
2023-05-14T16:50:45.179Z,19.18
2023-05-14T16:55:47.901Z,19.47
2023-05-14T17:00:50.646Z,18.23
2023-05-14T17:05:55.066Z,18.41
2023-05-14T17:10:57.704Z,18.47
2023-05-14T17:16:00.659Z,18.21
2023-05-14T17:21:05.806Z,18.18
2023-05-14T17:26:08.555Z,18.50
2023-05-14T17:31:11.304Z,18.48
2023-05-14T17:36:15.481Z,18.28
2023-05-14T17:41:18.156Z,18.47
2023-05-14T17:46:21.244Z,18.47
2023-05-14T17:51:25.376Z,18.57
2023-05-14T17:56:28.095Z,18.44
2023-05-14T18:01:30.921Z,18.45
2023-05-14T18:06:35.191Z,18.28
2023-05-14T18:11:37.955Z,18.42
2023-05-14T18:16:41.005Z,18.42
2023-05-14T18:21:46.531Z,18.15
2023-05-14T18:26:49.240Z,18.23
2023-05-14T18:31:51.969Z,18.19
2023-05-14T18:36:56.065Z,18.10
2023-05-14T18:41:58.776Z,17.84
2023-05-14T18:47:01.470Z,18.01
2023-05-14T18:52:06.542Z,17.96
2023-05-14T18:57:09.280Z,17.72
2023-05-14T19:02:11.981Z,17.43
2023-05-14T19:07:16.065Z,17.43
2023-05-14T19:12:18.768Z,17.27
2023-05-14T19:17:21.580Z,17.17
2023-05-14T19:22:25.701Z,17.16
2023-05-14T19:27:28.539Z,17.04
2023-05-14T19:32:31.293Z,17.06
2023-05-14T19:37:35.442Z,16.88
2023-05-14T19:42:38.135Z,16.83
2023-05-14T19:47:42.727Z,16.58
2023-05-14T19:52:46.816Z,16.54
2023-05-14T19:57:49.484Z,16.49
2023-05-14T20:02:52.257Z,16.14
2023-05-14T20:07:56.363Z,15.76
2023-05-14T20:12:59.010Z,15.90
2023-05-14T20:18:01.861Z,16.28
2023-05-14T20:23:05.936Z,16.31
2023-05-14T20:28:08.566Z,16.31
2023-05-14T20:33:12.917Z,16.10
2023-05-14T20:38:18.418Z,16.10
2023-05-14T20:43:21.060Z,16.13
2023-05-14T20:48:23.762Z,16.08
2023-05-14T20:53:28.704Z,16.01
2023-05-14T20:58:31.377Z,15.78
2023-05-14T21:03:34.509Z,15.74
2023-05-14T21:08:59.742Z,15.83
2023-05-14T21:14:02.327Z,15.80
2023-05-14T21:19:04.988Z,15.67
2023-05-14T21:24:09.337Z,15.70
2023-05-14T21:29:12.074Z,15.53
2023-05-14T21:34:14.807Z,15.61
2023-05-14T21:39:19.879Z,15.25
2023-05-14T21:44:22.626Z,15.19
2023-05-14T21:49:25.394Z,15.38
2023-05-14T21:54:29.467Z,15.42
2023-05-14T21:59:32.151Z,15.27
2023-05-14T22:04:35.134Z,15.46
2023-05-14T22:09:39.365Z,15.25
2023-05-14T22:14:42.121Z,15.11
2023-05-14T22:19:44.803Z,15.02
2023-05-14T22:24:48.828Z,15.06
2023-05-14T22:29:51.554Z,14.99
2023-05-14T22:34:54.246Z,14.86
2023-05-14T22:39:58.329Z,14.73
2023-05-14T22:45:01.056Z,14.66
2023-05-14T22:50:03.885Z,14.46
2023-05-14T22:55:09.070Z,14.54
2023-05-14T23:00:13.077Z,14.47
2023-05-14T23:05:15.906Z,14.19
2023-05-14T23:10:20.023Z,13.70
2023-05-14T23:15:22.828Z,13.76
2023-05-14T23:20:25.777Z,13.97
2023-05-14T23:25:29.872Z,14.13
2023-05-14T23:30:32.538Z,14.14
2023-05-14T23:35:35.686Z,14.07
2023-05-14T23:40:39.721Z,13.98
2023-05-14T23:45:42.526Z,13.88
2023-05-14T23:50:45.191Z,13.62
2023-05-14T23:55:49.288Z,13.73
